Time;durP1;ratioP1;P1;durP2;ratioP2;P2;SDS_P1;SDS_P2;PMS_P1;PMS_P2;Temp;Humidity;BMP_temperature;BMP_pressure;BME280_temperature;BME280_humidity;BME280_pressure;Samples;Min_cycle;Max_cycle;Signal;HPM_P1;HPM_P2
2024/04/07 00:02:22;;;;;;;7.10;4.30;;;;;;;;;;5102620;28;20625;-81
2024/04/07 00:04:50;;;;;;;10.70;4.50;;;;;;;;;;5102566;28;21219;-81
2024/04/07 00:07:17;;;;;;;5.27;4.27;;;;;;;;;;5102808;28;20639;-81
2024/04/07 00:09:46;;;;;;;5.30;4.87;;;;;;;;;;5102747;28;20716;-81
2024/04/07 00:12:13;;;;;;;8.03;5.60;;;;;;;;;;5101775;28;21158;-81
2024/04/07 00:14:39;;;;;;;7.30;4.67;;;;;;;;;;5102418;28;20663;-82
2024/04/07 00:17:07;;;;;;;5.00;4.30;;;;;;;;;;5102174;28;20732;-80
2024/04/07 00:19:34;;;;;;;10.67;4.80;;;;;;;;;;5102823;28;21267;-80
2024/04/07 00:22:01;;;;;;;7.20;4.50;;;;;;;;;;5101708;28;21396;-80
2024/04/07 00:24:28;;;;;;;7.53;4.53;;;;;;;;;;5102312;28;20683;-81
2024/04/07 00:26:55;;;;;;;5.37;4.73;;;;;;;;;;5102076;28;20616;-82
2024/04/07 00:29:21;;;;;;;6.10;4.50;;;;;;;;;;5088207;28;20612;-80
2024/04/07 00:31:49;;;;;;;5.13;4.73;;;;;;;;;;5101980;28;21234;-81
2024/04/07 00:34:15;;;;;;;6.63;5.93;;;;;;;;;;5102609;28;20653;-81
2024/04/07 00:36:44;;;;;;;6.00;5.40;;;;;;;;;;5094136;28;20671;-81
2024/04/07 00:39:12;;;;;;;6.60;5.60;;;;;;;;;;5102935;28;20620;-80
2024/04/07 00:41:39;;;;;;;6.53;6.00;;;;;;;;;;5102436;28;20626;-80
2024/04/07 00:44:06;;;;;;;5.93;5.33;;;;;;;;;;5102337;28;20696;-81
2024/04/07 00:46:33;;;;;;;13.63;6.20;;;;;;;;;;5102133;28;20642;-80
2024/04/07 00:49:00;;;;;;;9.27;6.17;;;;;;;;;;5101444;28;20625;-82
2024/04/07 00:51:27;;;;;;;6.50;5.90;;;;;;;;;;5101762;28;21190;-81
2024/04/07 00:53:57;;;;;;;10.73;5.60;;;;;;;;;;5101771;28;20735;-81
2024/04/07 00:56:24;;;;;;;5.97;5.47;;;;;;;;;;5102002;28;20962;-81
2024/04/07 00:58:59;;;;;;;8.63;6.70;;;;;;;;;;5102350;28;21347;-81
2024/04/07 01:01:25;;;;;;;7.33;5.67;;;;;;;;;;5102045;28;20627;-81
2024/04/07 01:03:52;;;;;;;6.80;5.80;;;;;;;;;;5101944;28;20612;-81
2024/04/07 01:06:18;;;;;;;9.43;6.80;;;;;;;;;;5100881;28;20630;-80
2024/04/07 01:08:46;;;;;;;5.63;5.10;;;;;;;;;;5100668;28;21105;-81
2024/04/07 01:11:14;;;;;;;5.60;5.10;;;;;;;;;;5101958;28;20985;-81
2024/04/07 01:13:41;;;;;;;7.87;5.50;;;;;;;;;;5104707;28;21177;-81
2024/04/07 01:16:07;;;;;;;5.73;5.20;;;;;;;;;;5101299;28;21316;-81
2024/04/07 01:18:34;;;;;;;6.53;5.77;;;;;;;;;;5101395;28;21005;-81
2024/04/07 01:21:00;;;;;;;5.83;5.43;;;;;;;;;;5101066;28;21336;-80
2024/04/07 01:23:29;;;;;;;8.00;6.57;;;;;;;;;;5101895;28;20608;-80
2024/04/07 01:25:55;;;;;;;5.93;5.33;;;;;;;;;;5101310;28;20668;-81
2024/04/07 01:28:22;;;;;;;5.60;5.10;;;;;;;;;;5100896;28;21152;-81
2024/04/07 01:30:49;;;;;;;6.20;5.10;;;;;;;;;;5101438;28;20620;-81
2024/04/07 01:33:17;;;;;;;5.60;5.20;;;;;;;;;;5101278;28;20616;-81
2024/04/07 01:35:43;;;;;;;5.57;5.00;;;;;;;;;;5100842;28;20708;-81
2024/04/07 01:38:10;;;;;;;6.57;5.13;;;;;;;;;;5100859;28;20600;-81
2024/04/07 01:40:39;;;;;;;9.67;4.53;;;;;;;;;;5101278;28;21224;-80
2024/04/07 01:43:06;;;;;;;7.40;4.63;;;;;;;;;;5102313;28;20623;-80
2024/04/07 01:45:32;;;;;;;4.40;4.03;;;;;;;;;;5101829;28;20631;-80
2024/04/07 01:48:00;;;;;;;5.37;4.93;;;;;;;;;;5101339;28;20612;-80
2024/04/07 01:50:26;;;;;;;6.17;4.93;;;;;;;;;;5100879;28;20616;-80
2024/04/07 01:52:54;;;;;;;10.30;4.57;;;;;;;;;;5097182;28;20613;-80
2024/04/07 01:55:20;;;;;;;6.63;5.63;;;;;;;;;;5100689;28;20627;-80
2024/04/07 01:57:49;;;;;;;4.93;4.50;;;;;;;;;;5100193;28;20698;-81
2024/04/07 02:00:15;;;;;;;7.07;4.80;;;;;;;;;;5101457;28;21227;-80
2024/04/07 02:02:42;;;;;;;5.83;4.67;;;;;;;;;;5100195;28;20724;-80
2024/04/07 02:05:09;;;;;;;4.53;4.13;;;;;;;;;;5101135;28;20725;-80
2024/04/07 02:07:36;;;;;;;5.47;5.07;;;;;;;;;;5100472;28;20624;-81
2024/04/07 02:10:03;;;;;;;5.07;4.57;;;;;;;;;;5092781;28;20634;-80
2024/04/07 02:12:34;;;;;;;7.30;4.30;;;;;;;;;;5099814;28;20823;-81
2024/04/07 02:15:01;;;;;;;7.97;4.47;;;;;;;;;;5092112;28;20677;-81
2024/04/07 02:17:28;;;;;;;5.83;5.20;;;;;;;;;;5099719;28;20691;-80
2024/04/07 02:19:56;;;;;;;5.43;4.80;;;;;;;;;;5100272;28;20627;-81
2024/04/07 02:22:23;;;;;;;7.60;4.43;;;;;;;;;;5100534;28;20612;-81
2024/04/07 02:24:49;;;;;;;5.67;4.33;;;;;;;;;;5101079;28;20768;-81
2024/04/07 02:27:17;;;;;;;5.23;4.43;;;;;;;;;;5099729;28;20621;-80
2024/04/07 02:29:44;;;;;;;5.03;4.50;;;;;;;;;;5100034;28;21444;-81
2024/04/07 02:32:12;;;;;;;4.50;4.10;;;;;;;;;;5099244;28;20630;-81
2024/04/07 02:34:39;;;;;;;5.10;4.53;;;;;;;;;;5100852;28;20624;-81
2024/04/07 02:37:07;;;;;;;5.23;4.77;;;;;;;;;;5100047;28;20662;-81
2024/04/07 02:39:33;;;;;;;8.20;5.43;;;;;;;;;;5100031;28;20604;-81
2024/04/07 02:42:01;;;;;;;9.27;4.40;;;;;;;;;;5099387;28;20624;-81
2024/04/07 02:49:59;;;;;;;4.93;4.53;;;;;;;;;;5100392;28;20607;-80
2024/04/07 02:52:26;;;;;;;4.90;4.50;;;;;;;;;;5099497;28;20617;-81
2024/04/07 02:54:53;;;;;;;7.23;4.43;;;;;;;;;;5099260;28;20740;-81
2024/04/07 02:57:19;;;;;;;9.30;5.00;;;;;;;;;;5099350;28;21426;-80
2024/04/07 02:59:47;;;;;;;4.43;4.13;;;;;;;;;;5100172;28;20628;-80
2024/04/07 03:02:15;;;;;;;8.30;5.03;;;;;;;;;;5099194;28;20614;-82
2024/04/07 03:04:43;;;;;;;10.07;4.60;;;;;;;;;;5100818;28;20632;-81
2024/04/07 03:07:09;;;;;;;4.77;4.47;;;;;;;;;;5099117;28;21251;-81
2024/04/07 03:09:36;;;;;;;4.87;4.33;;;;;;;;;;5099867;28;20624;-81
2024/04/07 03:12:02;;;;;;;4.60;4.20;;;;;;;;;;5100723;28;20620;-81
2024/04/07 03:14:30;;;;;;;5.17;4.67;;;;;;;;;;5099893;28;20673;-81
2024/04/07 03:16:58;;;;;;;4.30;3.90;;;;;;;;;;5104409;28;20806;-81
2024/04/07 03:19:27;;;;;;;5.73;4.50;;;;;;;;;;5099567;28;20751;-81
2024/04/07 03:21:53;;;;;;;5.73;4.27;;;;;;;;;;5100485;28;20620;-81
2024/04/07 03:24:20;;;;;;;4.90;3.87;;;;;;;;;;5099733;28;20621;-81
2024/04/07 03:26:46;;;;;;;3.60;3.37;;;;;;;;;;5099899;28;20624;-80
2024/04/07 03:29:14;;;;;;;4.87;4.50;;;;;;;;;;5099471;28;21090;-82
2024/04/07 03:31:40;;;;;;;6.20;4.73;;;;;;;;;;5099997;28;20628;-81
2024/04/07 03:34:08;;;;;;;8.93;8.00;;;;;;;;;;5099613;28;20621;-82
2024/04/07 03:36:35;;;;;;;11.50;10.80;;;;;;;;;;5100294;28;20728;-80
2024/04/07 03:39:03;;;;;;;14.57;13.43;;;;;;;;;;5099423;28;20696;-80
2024/04/07 03:41:30;;;;;;;15.60;14.60;;;;;;;;;;5099617;28;21283;-80
2024/04/07 03:43:57;;;;;;;16.67;15.40;;;;;;;;;;5099478;28;20917;-81
2024/04/07 03:46:24;;;;;;;17.63;16.20;;;;;;;;;;5099842;28;20619;-80
2024/04/07 03:48:53;;;;;;;19.03;16.97;;;;;;;;;;5099927;28;21170;-80
2024/04/07 03:51:20;;;;;;;18.70;17.07;;;;;;;;;;5099601;28;20631;-80
2024/04/07 03:53:52;;;;;;;18.27;16.53;;;;;;;;;;5099831;28;20652;-81
2024/04/07 03:56:19;;;;;;;18.07;16.60;;;;;;;;;;5083721;28;20647;-81
2024/04/07 03:58:49;;;;;;;18.70;17.30;;;;;;;;;;5098837;28;20635;-80
2024/04/07 04:01:15;;;;;;;18.60;17.13;;;;;;;;;;5102315;28;20611;-80
2024/04/07 04:03:43;;;;;;;18.47;17.13;;;;;;;;;;5103199;28;21184;-81
2024/04/07 04:06:09;;;;;;;18.73;17.47;;;;;;;;;;5103013;28;20640;-81
2024/04/07 04:08:36;;;;;;;18.53;17.10;;;;;;;;;;5100542;28;21200;-81
2024/04/07 04:11:05;;;;;;;17.60;16.40;;;;;;;;;;5098177;28;20928;-81
2024/04/07 04:13:32;;;;;;;18.50;17.17;;;;;;;;;;5103337;28;20625;-80
2024/04/07 04:15:59;;;;;;;18.27;16.87;;;;;;;;;;5102823;28;20632;-80
2024/04/07 04:18:27;;;;;;;18.60;17.40;;;;;;;;;;5102616;28;20644;-81
2024/04/07 04:20:53;;;;;;;18.63;17.13;;;;;;;;;;5102912;28;20616;-80
2024/04/07 04:23:21;;;;;;;17.93;16.53;;;;;;;;;;5102858;28;20628;-80
2024/04/07 04:25:50;;;;;;;18.43;17.23;;;;;;;;;;5102575;28;20616;-80
2024/04/07 04:28:19;;;;;;;18.60;16.80;;;;;;;;;;5102882;28;20616;-81
2024/04/07 04:30:50;;;;;;;18.30;16.80;;;;;;;;;;5103210;28;20858;-81
2024/04/07 04:33:18;;;;;;;18.60;16.90;;;;;;;;;;5102715;28;20661;-81
2024/04/07 04:35:44;;;;;;;18.73;16.93;;;;;;;;;;5102307;28;20628;-81
2024/04/07 04:38:14;;;;;;;18.40;16.80;;;;;;;;;;5102643;28;20651;-80
2024/04/07 04:40:40;;;;;;;17.90;16.53;;;;;;;;;;5102243;28;20625;-81
2024/04/07 04:43:08;;;;;;;18.07;16.60;;;;;;;;;;5102558;28;20624;-81
2024/04/07 04:45:36;;;;;;;17.70;16.37;;;;;;;;;;5102611;28;20624;-80
2024/04/07 04:48:03;;;;;;;18.27;17.00;;;;;;;;;;5102174;28;20623;-80
2024/04/07 04:50:29;;;;;;;19.97;17.03;;;;;;;;;;5101953;28;20623;-81
2024/04/07 04:52:57;;;;;;;17.43;16.30;;;;;;;;;;5102381;28;21257;-80
2024/04/07 04:55:23;;;;;;;17.83;16.60;;;;;;;;;;5102676;28;20626;-81
2024/04/07 04:57:50;;;;;;;17.60;16.20;;;;;;;;;;5101663;28;21094;-81
2024/04/07 05:00:17;;;;;;;17.53;16.23;;;;;;;;;;5102309;28;20609;-81
2024/04/07 05:02:45;;;;;;;16.80;15.90;;;;;;;;;;5101490;28;20626;-79
2024/04/07 05:05:12;;;;;;;17.60;16.33;;;;;;;;;;5103213;28;21014;-80
2024/04/07 05:07:39;;;;;;;17.53;16.27;;;;;;;;;;5101545;28;21012;-81
2024/04/07 05:10:06;;;;;;;17.70;16.17;;;;;;;;;;5101829;28;21151;-80
2024/04/07 05:12:33;;;;;;;18.13;16.30;;;;;;;;;;5101553;28;21217;-81
2024/04/07 05:14:59;;;;;;;17.17;15.93;;;;;;;;;;5102482;28;20624;-80
2024/04/07 05:17:26;;;;;;;17.00;15.93;;;;;;;;;;5101887;28;20666;-81
2024/04/07 05:19:54;;;;;;;17.00;15.90;;;;;;;;;;5101948;28;20613;-80
2024/04/07 05:22:21;;;;;;;17.63;16.13;;;;;;;;;;5101697;28;20674;-81
2024/04/07 05:24:50;;;;;;;17.70;16.30;;;;;;;;;;5102098;28;20617;-81
2024/04/07 05:27:17;;;;;;;17.80;16.47;;;;;;;;;;5101599;28;20669;-80
2024/04/07 05:29:46;;;;;;;18.80;16.77;;;;;;;;;;5101796;28;21174;-80
2024/04/07 05:32:14;;;;;;;17.50;16.17;;;;;;;;;;5101266;28;21307;-80
2024/04/07 05:34:40;;;;;;;17.53;16.43;;;;;;;;;;5102543;28;20632;-80
2024/04/07 05:37:09;;;;;;;20.20;16.63;;;;;;;;;;5101530;28;20646;-80
2024/04/07 05:39:35;;;;;;;18.53;16.63;;;;;;;;;;5089540;28;21228;-80
2024/04/07 05:42:02;;;;;;;18.37;16.63;;;;;;;;;;5100918;28;20620;-80
2024/04/07 05:44:29;;;;;;;16.80;15.80;;;;;;;;;;5101558;28;20624;-80
2024/04/07 05:46:56;;;;;;;17.53;16.10;;;;;;;;;;5101056;28;20620;-81
2024/04/07 05:49:22;;;;;;;17.37;16.27;;;;;;;;;;5099147;28;20637;-80
2024/04/07 05:51:49;;;;;;;16.97;15.90;;;;;;;;;;5100994;28;21261;-80
2024/04/07 05:54:17;;;;;;;17.13;15.80;;;;;;;;;;5100708;28;20652;-81
2024/04/07 05:56:44;;;;;;;17.27;16.17;;;;;;;;;;5097367;28;20622;-80
2024/04/07 05:59:11;;;;;;;16.73;15.40;;;;;;;;;;5100633;28;20656;-81
2024/04/07 06:01:38;;;;;;;17.07;15.80;;;;;;;;;;5102241;28;20981;-80
2024/04/07 06:04:04;;;;;;;17.10;15.77;;;;;;;;;;5101762;28;20625;-80
2024/04/07 06:06:32;;;;;;;16.37;15.40;;;;;;;;;;5100556;28;20842;-81
2024/04/07 06:08:58;;;;;;;17.20;16.00;;;;;;;;;;5100087;28;20630;-80
2024/04/07 06:11:27;;;;;;;17.23;16.10;;;;;;;;;;5100583;28;20627;-80
2024/04/07 06:13:53;;;;;;;17.57;16.17;;;;;;;;;;5101308;28;20644;-81
2024/04/07 06:16:20;;;;;;;16.93;15.63;;;;;;;;;;5100654;28;21287;-80
2024/04/07 06:18:47;;;;;;;16.20;14.90;;;;;;;;;;5101030;28;20672;-80
2024/04/07 06:21:16;;;;;;;15.90;14.90;;;;;;;;;;5101131;28;21001;-81
2024/04/07 06:23:42;;;;;;;17.10;15.80;;;;;;;;;;5100679;28;20630;-81
2024/04/07 06:26:09;;;;;;;15.57;14.63;;;;;;;;;;5100194;28;20631;-81
2024/04/07 06:28:40;;;;;;;16.83;15.57;;;;;;;;;;5101151;28;20626;-81
2024/04/07 06:31:07;;;;;;;16.53;15.20;;;;;;;;;;5099198;28;20655;-81
2024/04/07 06:33:34;;;;;;;16.63;15.20;;;;;;;;;;5100256;28;20980;-81
2024/04/07 06:36:01;;;;;;;16.10;15.00;;;;;;;;;;5100108;28;20628;-80
2024/04/07 06:38:27;;;;;;;17.33;15.80;;;;;;;;;;5100471;28;20728;-80
2024/04/07 06:40:54;;;;;;;15.93;14.90;;;;;;;;;;5100499;28;21230;-82
2024/04/07 06:43:21;;;;;;;16.87;15.47;;;;;;;;;;5100895;28;20689;-78
2024/04/07 06:45:49;;;;;;;16.93;15.70;;;;;;;;;;5100463;28;20613;-81
2024/04/07 06:48:15;;;;;;;17.03;15.43;;;;;;;;;;5100378;28;21306;-80
2024/04/07 06:50:43;;;;;;;16.73;15.53;;;;;;;;;;5101149;28;21214;-81
2024/04/07 06:53:09;;;;;;;16.40;15.07;;;;;;;;;;5100183;28;20811;-81
2024/04/07 06:55:36;;;;;;;16.20;15.10;;;;;;;;;;5100120;28;20619;-82
2024/04/07 06:58:03;;;;;;;15.90;15.00;;;;;;;;;;5100557;28;20680;-80
2024/04/07 07:00:30;;;;;;;15.00;14.10;;;;;;;;;;5100428;28;20906;-80
2024/04/07 07:02:58;;;;;;;15.20;14.03;;;;;;;;;;5100931;28;20616;-81
2024/04/07 07:05:25;;;;;;;15.27;14.10;;;;;;;;;;5100040;28;20711;-80
2024/04/07 07:07:51;;;;;;;14.57;13.67;;;;;;;;;;5099329;28;20616;-81
2024/04/07 07:10:19;;;;;;;15.97;14.57;;;;;;;;;;5100296;28;20624;-80
2024/04/07 07:12:45;;;;;;;14.80;14.00;;;;;;;;;;5100385;28;20685;-80
2024/04/07 07:15:12;;;;;;;14.27;13.63;;;;;;;;;;5100656;28;20632;-81
2024/04/07 07:17:38;;;;;;;16.20;14.60;;;;;;;;;;5100447;28;20646;-82
2024/04/07 07:20:08;;;;;;;14.60;13.90;;;;;;;;;;5098464;28;20630;-81
2024/04/07 07:22:36;;;;;;;14.50;13.83;;;;;;;;;;5097148;28;20624;-82
2024/04/07 07:25:04;;;;;;;16.07;14.43;;;;;;;;;;5092638;28;20641;-80
2024/04/07 07:27:31;;;;;;;14.47;13.47;;;;;;;;;;5099241;28;20628;-81
2024/04/07 07:29:59;;;;;;;13.93;12.93;;;;;;;;;;5100682;28;20641;-81
2024/04/07 07:32:25;;;;;;;14.57;13.57;;;;;;;;;;5100888;28;20689;-81
2024/04/07 07:34:53;;;;;;;14.70;13.80;;;;;;;;;;5101040;28;20620;-82
2024/04/07 07:37:20;;;;;;;14.10;13.30;;;;;;;;;;5104148;28;21325;-81
2024/04/07 07:39:50;;;;;;;13.90;13.10;;;;;;;;;;5105317;28;20678;-80
2024/04/07 07:42:17;;;;;;;14.47;13.47;;;;;;;;;;5104492;28;20625;-80
2024/04/07 07:44:45;;;;;;;13.40;12.70;;;;;;;;;;5104019;28;20752;-81
2024/04/07 07:47:11;;;;;;;13.33;12.43;;;;;;;;;;5104093;28;20769;-80
2024/04/07 07:49:38;;;;;;;13.77;13.10;;;;;;;;;;5103931;28;20681;-82
2024/04/07 07:52:05;;;;;;;15.00;14.00;;;;;;;;;;5103056;28;20620;-81
2024/04/07 07:54:34;;;;;;;14.10;13.30;;;;;;;;;;5103466;28;21345;-82
2024/04/07 07:57:00;;;;;;;14.57;13.53;;;;;;;;;;5103697;28;20608;-81
2024/04/07 07:59:28;;;;;;;14.40;13.50;;;;;;;;;;5103276;28;20652;-80
2024/04/07 08:01:55;;;;;;;14.13;13.20;;;;;;;;;;5103852;28;21194;-81
2024/04/07 08:04:22;;;;;;;14.57;13.40;;;;;;;;;;5102831;28;20839;-82
2024/04/07 08:06:48;;;;;;;14.93;13.83;;;;;;;;;;5104385;28;20684;-80
2024/04/07 08:09:21;;;;;;;14.80;13.90;;;;;;;;;;5103361;28;20644;-80
2024/04/07 08:11:49;;;;;;;14.40;13.50;;;;;;;;;;5096352;28;21202;-81
2024/04/07 08:14:17;;;;;;;15.40;13.77;;;;;;;;;;5103560;28;20620;-81
2024/04/07 08:16:44;;;;;;;14.70;13.80;;;;;;;;;;5103890;28;20733;-80
2024/04/07 08:19:11;;;;;;;14.70;13.73;;;;;;;;;;5102968;28;20727;-82
2024/04/07 08:21:39;;;;;;;15.27;14.30;;;;;;;;;;5103264;28;20623;-81
2024/04/07 08:24:06;;;;;;;15.07;13.97;;;;;;;;;;5102330;28;21243;-80
2024/04/07 08:26:34;;;;;;;15.00;14.00;;;;;;;;;;5103353;28;21208;-80
2024/04/07 08:29:02;;;;;;;15.47;14.03;;;;;;;;;;5102593;28;20654;-80
2024/04/07 08:31:29;;;;;;;16.27;14.90;;;;;;;;;;5103240;28;20999;-80
2024/04/07 08:33:56;;;;;;;15.60;14.50;;;;;;;;;;5102831;28;20623;-81
2024/04/07 08:36:22;;;;;;;15.53;14.23;;;;;;;;;;5102788;28;21201;-81
2024/04/07 08:38:49;;;;;;;15.30;14.07;;;;;;;;;;5102167;28;20671;-81
2024/04/07 08:41:16;;;;;;;15.97;14.77;;;;;;;;;;5102544;28;20622;-81
2024/04/07 08:43:46;;;;;;;16.17;15.03;;;;;;;;;;5102306;28;20692;-81
2024/04/07 08:46:14;;;;;;;14.87;14.10;;;;;;;;;;5098788;28;20640;-80
2024/04/07 08:48:42;;;;;;;19.90;14.63;;;;;;;;;;5096260;28;21008;-79
2024/04/07 08:51:09;;;;;;;14.77;13.77;;;;;;;;;;5095156;28;21202;-80
2024/04/07 08:53:38;;;;;;;15.60;14.50;;;;;;;;;;5102257;28;20744;-81
2024/04/07 08:56:05;;;;;;;15.13;14.13;;;;;;;;;;5100825;28;20608;-80
2024/04/07 08:58:33;;;;;;;15.40;14.40;;;;;;;;;;5097667;28;20653;-81
2024/04/07 09:01:00;;;;;;;15.73;14.70;;;;;;;;;;5096077;28;20632;-81
2024/04/07 09:03:29;;;;;;;16.13;15.10;;;;;;;;;;5091512;28;21024;-80
2024/04/07 09:05:55;;;;;;;15.53;14.53;;;;;;;;;;5101926;28;21265;-83
2024/04/07 09:08:23;;;;;;;15.03;13.90;;;;;;;;;;5102299;28;21246;-81
2024/04/07 09:10:49;;;;;;;16.93;15.80;;;;;;;;;;5101074;28;20620;-81
2024/04/07 09:13:16;;;;;;;15.70;14.60;;;;;;;;;;5095245;28;20637;-81
2024/04/07 09:15:43;;;;;;;15.30;14.27;;;;;;;;;;5099226;28;21262;-80
2024/04/07 09:18:11;;;;;;;15.63;14.73;;;;;;;;;;5101989;28;20998;-81
2024/04/07 09:20:39;;;;;;;16.97;15.33;;;;;;;;;;5101875;28;20624;-79
2024/04/07 09:23:07;;;;;;;16.57;15.40;;;;;;;;;;5100585;28;20685;-81
2024/04/07 09:25:33;;;;;;;16.47;15.17;;;;;;;;;;5097814;28;20650;-81
2024/04/07 09:28:00;;;;;;;18.80;16.30;;;;;;;;;;5101953;28;20628;-80
2024/04/07 09:30:26;;;;;;;17.53;16.33;;;;;;;;;;5102177;28;20688;-81
2024/04/07 09:32:56;;;;;;;17.53;16.07;;;;;;;;;;5093772;28;20632;-80
2024/04/07 09:35:22;;;;;;;18.00;16.60;;;;;;;;;;5097242;28;20642;-81
2024/04/07 09:37:52;;;;;;;17.97;16.97;;;;;;;;;;5102201;28;20609;-81
2024/04/07 09:40:18;;;;;;;18.50;17.10;;;;;;;;;;5096390;28;21057;-80
2024/04/07 09:42:45;;;;;;;17.27;16.23;;;;;;;;;;5101295;28;20680;-79
2024/04/07 09:45:12;;;;;;;16.97;16.00;;;;;;;;;;5102262;28;20684;-82
2024/04/07 09:47:44;;;;;;;16.70;15.83;;;;;;;;;;5101452;28;20767;-80
2024/04/07 09:50:14;;;;;;;17.03;16.13;;;;;;;;;;5101608;28;21186;-80
2024/04/07 09:52:43;;;;;;;17.07;15.83;;;;;;;;;;5101643;28;20620;-80
2024/04/07 09:55:12;;;;;;;17.67;16.57;;;;;;;;;;5102268;28;20620;-80
2024/04/07 09:57:39;;;;;;;18.23;16.90;;;;;;;;;;5100086;28;20835;-81
2024/04/07 10:00:10;;;;;;;17.30;16.33;;;;;;;;;;5101703;28;21280;-81
2024/04/07 10:02:38;;;;;;;17.70;16.40;;;;;;;;;;5100688;28;21267;-81
2024/04/07 10:05:05;;;;;;;16.77;15.77;;;;;;;;;;5101655;28;20616;-80
2024/04/07 10:07:34;;;;;;;17.80;16.70;;;;;;;;;;5101412;28;20609;-81
2024/04/07 10:10:00;;;;;;;17.20;16.30;;;;;;;;;;5101536;28;20680;-81
2024/04/07 10:12:30;;;;;;;17.50;16.60;;;;;;;;;;5101669;28;20616;-80
2024/04/07 10:14:57;;;;;;;17.83;16.00;;;;;;;;;;5101538;28;21251;-81
2024/04/07 10:17:26;;;;;;;16.67;15.77;;;;;;;;;;5102857;28;20608;-80
2024/04/07 10:19:54;;;;;;;17.63;16.50;;;;;;;;;;5101450;28;20659;-80
2024/04/07 10:22:22;;;;;;;16.80;15.97;;;;;;;;;;5102098;28;21491;-80
2024/04/07 10:24:50;;;;;;;17.77;16.43;;;;;;;;;;5102862;28;20770;-80
2024/04/07 10:27:22;;;;;;;17.03;15.73;;;;;;;;;;5102619;28;20646;-79
2024/04/07 10:29:52;;;;;;;16.50;15.70;;;;;;;;;;5103360;28;20616;-80
2024/04/07 10:32:20;;;;;;;16.53;15.73;;;;;;;;;;5102937;28;20991;-82
2024/04/07 10:34:58;;;;;;;17.23;15.80;;;;;;;;;;5103039;28;20624;-81
2024/04/07 10:37:26;;;;;;;16.93;16.03;;;;;;;;;;5102798;28;20626;-80
2024/04/07 10:39:54;;;;;;;16.77;15.87;;;;;;;;;;5102684;28;20686;-80
2024/04/07 10:42:22;;;;;;;17.00;16.00;;;;;;;;;;5101043;28;20612;-80
2024/04/07 10:44:48;;;;;;;17.13;15.77;;;;;;;;;;5103174;28;21158;-81
2024/04/07 10:47:17;;;;;;;19.83;17.23;;;;;;;;;;5102781;28;20628;-80
2024/04/07 10:49:44;;;;;;;19.70;17.97;;;;;;;;;;5102633;28;20620;-82
2024/04/07 10:52:15;;;;;;;18.50;16.87;;;;;;;;;;5102270;28;21166;-81
2024/04/07 10:54:41;;;;;;;19.23;17.90;;;;;;;;;;5103256;28;21023;-81
2024/04/07 10:57:12;;;;;;;18.13;16.63;;;;;;;;;;5103074;28;20720;-81
2024/04/07 10:59:39;;;;;;;17.07;15.83;;;;;;;;;;5090824;28;21183;-80
2024/04/07 11:02:07;;;;;;;18.77;17.40;;;;;;;;;;5102657;28;20739;-79
2024/04/07 11:04:35;;;;;;;17.30;16.23;;;;;;;;;;5095752;28;20662;-79
2024/04/07 11:07:03;;;;;;;17.53;16.60;;;;;;;;;;5102324;28;20632;-81
2024/04/07 11:09:30;;;;;;;18.23;16.87;;;;;;;;;;5090971;28;20621;-81
2024/04/07 11:11:58;;;;;;;18.17;16.93;;;;;;;;;;5105843;28;20608;-80
2024/04/07 11:14:25;;;;;;;17.13;16.23;;;;;;;;;;5105661;28;20624;-80
2024/04/07 11:16:53;;;;;;;18.03;16.70;;;;;;;;;;5106392;28;20620;-81
2024/04/07 11:19:21;;;;;;;17.87;16.67;;;;;;;;;;5105525;28;20660;-79
2024/04/07 11:21:50;;;;;;;18.40;17.20;;;;;;;;;;5105649;28;21246;-81
2024/04/07 11:24:17;;;;;;;17.43;16.30;;;;;;;;;;5105000;28;21293;-81
2024/04/07 11:26:44;;;;;;;17.30;16.30;;;;;;;;;;5104730;28;21199;-81
2024/04/07 11:29:11;;;;;;;17.50;16.50;;;;;;;;;;5104728;28;20612;-81
2024/04/07 11:31:38;;;;;;;18.30;17.00;;;;;;;;;;5104610;27;21366;-82
2024/04/07 11:34:05;;;;;;;18.03;16.87;;;;;;;;;;5104736;28;20700;-79
2024/04/07 11:36:32;;;;;;;18.73;17.50;;;;;;;;;;5104908;28;20715;-80
2024/04/07 11:39:00;;;;;;;18.40;17.07;;;;;;;;;;5104258;28;20719;-81
2024/04/07 11:41:27;;;;;;;17.73;16.37;;;;;;;;;;5105105;28;20631;-80
2024/04/07 11:43:53;;;;;;;16.70;15.83;;;;;;;;;;5105691;28;20628;-81
2024/04/07 11:46:20;;;;;;;18.10;16.60;;;;;;;;;;5106537;28;21055;-81
2024/04/07 11:48:46;;;;;;;18.67;17.07;;;;;;;;;;5105867;28;21211;-79
2024/04/07 11:51:13;;;;;;;17.17;16.10;;;;;;;;;;5115683;27;21291;-79
2024/04/07 11:53:45;;;;;;;17.83;16.60;;;;;;;;;;5126208;27;20637;-79
2024/04/07 11:56:14;;;;;;;18.00;16.70;;;;;;;;;;5125867;27;20615;-81
2024/04/07 11:58:41;;;;;;;17.10;16.20;;;;;;;;;;5123811;27;20623;-81
2024/04/07 12:01:08;;;;;;;17.50;16.47;;;;;;;;;;5123872;27;21173;-80
2024/04/07 12:03:34;;;;;;;18.50;16.83;;;;;;;;;;5119723;27;20627;-80
2024/04/07 12:06:01;;;;;;;18.13;16.90;;;;;;;;;;5123301;27;21329;-80
2024/04/07 12:08:27;;;;;;;18.73;17.53;;;;;;;;;;5123231;27;20626;-78
2024/04/07 12:10:54;;;;;;;18.90;17.60;;;;;;;;;;5125546;27;21140;-80
2024/04/07 12:13:21;;;;;;;17.80;16.73;;;;;;;;;;5131295;27;20620;-77
2024/04/07 12:15:49;;;;;;;19.07;17.20;;;;;;;;;;5122492;27;20622;-82
2024/04/07 12:18:15;;;;;;;18.37;16.90;;;;;;;;;;5121806;27;20655;-79
2024/04/07 12:20:43;;;;;;;17.90;16.60;;;;;;;;;;5122023;27;20646;-81
2024/04/07 12:23:09;;;;;;;18.50;16.73;;;;;;;;;;5122157;27;20631;-80
2024/04/07 12:25:36;;;;;;;18.20;17.00;;;;;;;;;;5122435;27;20634;-80
2024/04/07 12:28:02;;;;;;;17.73;16.87;;;;;;;;;;5123334;27;21377;-82
2024/04/07 12:30:31;;;;;;;18.03;16.87;;;;;;;;;;5122657;27;20609;-80
2024/04/07 12:32:57;;;;;;;17.23;16.23;;;;;;;;;;5111160;27;20692;-78
2024/04/07 12:35:24;;;;;;;17.87;16.60;;;;;;;;;;5114206;27;20670;-77
2024/04/07 12:37:51;;;;;;;17.70;16.60;;;;;;;;;;5120436;27;20676;-79
2024/04/07 12:40:18;;;;;;;17.43;16.27;;;;;;;;;;5121854;27;20657;-78
2024/04/07 12:42:44;;;;;;;18.00;16.83;;;;;;;;;;5109865;27;21331;-78
2024/04/07 12:45:11;;;;;;;18.57;17.07;;;;;;;;;;5127410;27;20627;-81
2024/04/07 12:47:39;;;;;;;17.97;16.63;;;;;;;;;;5113955;27;20619;-81
2024/04/07 12:50:07;;;;;;;17.73;16.30;;;;;;;;;;5122963;27;20647;-82
2024/04/07 12:52:37;;;;;;;17.33;16.30;;;;;;;;;;5103987;27;21265;-79
2024/04/07 12:55:05;;;;;;;17.60;16.37;;;;;;;;;;5093968;27;20768;-81
2024/04/07 12:57:31;;;;;;;17.90;16.73;;;;;;;;;;5096031;28;21320;-83
2024/04/07 12:59:58;;;;;;;17.00;16.00;;;;;;;;;;5110644;27;21325;-81
2024/04/07 13:02:25;;;;;;;16.87;15.87;;;;;;;;;;5092294;27;20672;-81
2024/04/07 13:04:54;;;;;;;18.53;17.33;;;;;;;;;;5080625;28;20633;-81
2024/04/07 13:07:20;;;;;;;17.70;16.70;;;;;;;;;;5082473;28;20629;-81
2024/04/07 13:09:47;;;;;;;18.27;16.90;;;;;;;;;;5077489;28;20651;-82
2024/04/07 13:12:16;;;;;;;17.60;16.53;;;;;;;;;;5076186;28;21241;-81
2024/04/07 13:14:53;;;;;;;17.87;16.50;;;;;;;;;;5079685;28;20636;-81
2024/04/07 13:17:19;;;;;;;18.27;16.63;;;;;;;;;;5082218;28;20625;-81
2024/04/07 13:19:46;;;;;;;18.17;17.10;;;;;;;;;;5081576;28;20616;-82
2024/04/07 13:22:14;;;;;;;17.40;16.27;;;;;;;;;;5083491;28;20641;-82
2024/04/07 13:24:41;;;;;;;17.40;16.37;;;;;;;;;;5082864;28;21199;-80
2024/04/07 13:27:07;;;;;;;17.90;16.37;;;;;;;;;;5083725;28;20684;-84
2024/04/07 13:29:35;;;;;;;18.00;16.60;;;;;;;;;;5083802;28;20621;-82
2024/04/07 13:32:01;;;;;;;18.43;16.90;;;;;;;;;;5075758;28;20629;-83
2024/04/07 13:34:37;;;;;;;17.60;16.43;;;;;;;;;;5072171;28;20712;-82
2024/04/07 13:37:04;;;;;;;17.57;16.37;;;;;;;;;;5077422;28;20747;-81
2024/04/07 13:39:33;;;;;;;17.57;16.57;;;;;;;;;;5078711;28;20625;-80
2024/04/07 13:41:59;;;;;;;17.87;16.50;;;;;;;;;;5075652;28;20668;-80
2024/04/07 13:44:27;;;;;;;17.33;16.40;;;;;;;;;;5071013;28;20830;-81
2024/04/07 13:46:54;;;;;;;17.20;16.20;;;;;;;;;;5076769;28;20628;-81
2024/04/07 13:49:21;;;;;;;21.27;19.50;;;;;;;;;;5075360;28;20590;-81
2024/04/07 13:51:48;;;;;;;18.87;17.17;;;;;;;;;;5069960;28;20605;-81
2024/04/07 13:54:15;;;;;;;17.73;16.60;;;;;;;;;;5076306;28;20771;-80
2024/04/07 13:56:50;;;;;;;18.80;17.00;;;;;;;;;;5074817;28;20690;-80
2024/04/07 13:59:18;;;;;;;18.77;17.37;;;;;;;;;;5077050;28;20633;-80
2024/04/07 14:01:44;;;;;;;18.03;17.00;;;;;;;;;;5063981;28;20661;-78
2024/04/07 14:04:14;;;;;;;18.93;17.40;;;;;;;;;;5075237;28;20812;-80
2024/04/07 14:06:41;;;;;;;18.67;17.30;;;;;;;;;;5077812;28;20635;-80
2024/04/07 14:09:09;;;;;;;18.00;16.70;;;;;;;;;;5071277;28;20614;-80
2024/04/07 14:11:35;;;;;;;18.97;17.30;;;;;;;;;;5072574;28;21296;-80
2024/04/07 14:14:07;;;;;;;18.77;17.27;;;;;;;;;;5076072;28;20936;-76
2024/04/07 14:16:35;;;;;;;18.67;17.60;;;;;;;;;;5079311;28;20593;-77
2024/04/07 14:19:03;;;;;;;19.10;18.00;;;;;;;;;;5080109;28;20628;-77
2024/04/07 14:21:29;;;;;;;18.50;17.10;;;;;;;;;;5077887;28;20722;-79
2024/04/07 14:23:57;;;;;;;18.87;17.20;;;;;;;;;;5074281;28;20641;-77
2024/04/07 14:26:23;;;;;;;17.47;16.37;;;;;;;;;;5067077;28;20657;-78
2024/04/07 14:28:51;;;;;;;17.73;16.67;;;;;;;;;;5079874;28;20624;-79
2024/04/07 14:31:18;;;;;;;18.70;17.13;;;;;;;;;;5079530;28;21030;-79